Thunder radar more information blitzortung!


Radar de pluja more information rain snow radar


Visita la nostra xarxa de llocs de meteo:

Template documentation
and downloads

And another site



No particular awareness of the weather is required.    There are no Weather-warnings

Pagina Historial Weather Underground text

Diari Resum Juliol 4, 2017 Unitats:  Tant    Imperial   Mètric
« Previous Dia
SegĂźent Dia »
Diari Setmana Mensual Anual Personalitzada
  Maxima: Minima: Media:
Temperatura: TemperatureC °F /  -17.8 °C 16.4 °F /  -8.7 °C 26 °F /  -3.3 °C
Punt de rosada: DewpointC °F /  -17.8 °C 8.7 °F /  -12.9 °C 11.3 °F /  -11.5 °C
Humitat: Humidity % 26 % 42 %
Wind Speed: WindSpeedKMH mph /  0 km/h - 7.1 mph /  11.4 km/h
RĂ fegues de vent: WindSpeedGustKMH mph /  0 km/h - -
Vent:- - SSW
Pression baro: PressurehPa in /  0 hPa 1014.8 in /  34361.1 hPa -
Precipitacions: 0.0 in /  0 mm    
Historical Graphs
 
 
Dades de taula per Juliol 4, 2017
Temps Temperatura Punt de rosada Pression baro Vent Wind Speed RĂ fegues de vent Humitat Rainfall Rate (Hourly)
TemperatureC °F /  -17.8 °C DewpointC °F /  -17.8 °C PressurehPa in /  0 hPa Calm     Humidity % HourlyPrecipMM in /  0 mm
00:00 17.8 °F /  -7.9 °C 13.5 °F /  -10.3 °C 1017.8 in /  34462.7 hPa Calm   1.6 mph /  2.6 km/h 76 % 0.0 in /  0 mm
00:01 21.4 °F /  -5.9 °C 11.4 °F /  -11.4 °C 1018.8 in /  34496.6 hPa WSW 3.7 mph /  6 km/h 3.7 mph /  6 km/h 53 % 0.0 in /  0 mm
00:06 21.3 °F /  -5.9 °C 11.3 °F /  -11.5 °C 1018.8 in /  34496.6 hPa West 3.7 mph /  6 km/h 3.7 mph /  6 km/h 53 % 0.0 in /  0 mm
00:10 17.6 °F /  -8 °C 13.1 °F /  -10.5 °C 1017.8 in /  34462.7 hPa Calm   3.2 mph /  5.1 km/h 75 % 0.0 in /  0 mm
00:20 17.4 °F /  -8.1 °C 12.9 °F /  -10.6 °C 1017.8 in /  34462.7 hPa Calm     75 % 0.0 in /  0 mm
00:30 17.1 °F /  -8.3 °C 12.8 °F /  -10.7 °C 1017.8 in /  34462.7 hPa Calm   3.2 mph /  5.1 km/h 76 % 0.0 in /  0 mm
00:40 16.8 °F /  -8.4 °C 12.6 °F /  -10.8 °C 1017.8 in /  34462.7 hPa WSW 1.6 mph /  2.6 km/h 4.8 mph /  7.7 km/h 76 % 0.0 in /  0 mm
00:50 16.6 °F /  -8.6 °C 12.6 °F /  -10.8 °C 1017.8 in /  34462.7 hPa WSW 3.2 mph /  5.1 km/h 3.2 mph /  5.1 km/h 77 % 0.0 in /  0 mm
01:00 16.5 °F /  -8.6 °C 12.4 °F /  -10.9 °C 1017.8 in /  34462.7 hPa SW 1.6 mph /  2.6 km/h 3.2 mph /  5.1 km/h 77 % 0.0 in /  0 mm
01:10 16.5 °F /  -8.6 °C 12.7 °F /  -10.7 °C 1017.8 in /  34462.7 hPa Calm   3.2 mph /  5.1 km/h 78 % 0.0 in /  0 mm
01:20 16.5 °F /  -8.6 °C 12.7 °F /  -10.7 °C 1017.8 in /  34462.7 hPa Calm   1.6 mph /  2.6 km/h 78 % 0.0 in /  0 mm
01:30 16.5 °F /  -8.6 °C 12.8 °F /  -10.7 °C 1017.8 in /  34462.7 hPa Calm     79 % 0.0 in /  0 mm
01:40 16.5 °F /  -8.6 °C 12.8 °F /  -10.7 °C 1017.8 in /  34462.7 hPa Calm     79 % 0.0 in /  0 mm
01:50 16.5 °F /  -8.6 °C 12.8 °F /  -10.7 °C 1017.8 in /  34462.7 hPa Calm   1.6 mph /  2.6 km/h 79 % 0.0 in /  0 mm
02:00 16.4 °F /  -8.7 °C 12.6 °F /  -10.8 °C 1017.8 in /  34462.7 hPa WSW 3.2 mph /  5.1 km/h 3.2 mph /  5.1 km/h 78 % 0.0 in /  0 mm
02:10 16.4 °F /  -8.7 °C 12.6 °F /  -10.8 °C 1017.8 in /  34462.7 hPa SW 1.6 mph /  2.6 km/h 3.2 mph /  5.1 km/h 78 % 0.0 in /  0 mm
02:20 16.7 °F /  -8.5 °C 12.4 °F /  -10.9 °C 1018.8 in /  34496.6 hPa SW 3.2 mph /  5.1 km/h 3.2 mph /  5.1 km/h 76 % 0.0 in /  0 mm
02:30 16.9 °F /  -8.4 °C 12.7 °F /  -10.7 °C 1018.8 in /  34496.6 hPa Calm   3.2 mph /  5.1 km/h 76 % 0.0 in /  0 mm
02:40 17.5 °F /  -8.1 °C 12.8 °F /  -10.7 °C 1018.8 in /  34496.6 hPa SW 1.6 mph /  2.6 km/h 3.2 mph /  5.1 km/h 74 % 0.0 in /  0 mm
02:50 18.3 °F /  -7.6 °C 13.4 °F /  -10.3 °C 1018.8 in /  34496.6 hPa Calm   1.6 mph /  2.6 km/h 73 % 0.0 in /  0 mm
03:00 19.3 °F /  -7.1 °C 13.9 °F /  -10.1 °C 1018.8 in /  34496.6 hPa SW 1.6 mph /  2.6 km/h 1.6 mph /  2.6 km/h 71 % 0.0 in /  0 mm
03:10 20.1 °F /  -6.6 °C 14.0 °F /  -10 °C 1018.8 in /  34496.6 hPa Calm   1.6 mph /  2.6 km/h 68 % 0.0 in /  0 mm
03:20 20.1 °F /  -6.6 °C 13.6 °F /  -10.2 °C 1018.8 in /  34496.6 hPa ESE 1.6 mph /  2.6 km/h 3.2 mph /  5.1 km/h 66 % 0.0 in /  0 mm
03:30 19.9 °F /  -6.7 °C 13.6 °F /  -10.2 °C 1018.8 in /  34496.6 hPa SW 1.6 mph /  2.6 km/h 4.8 mph /  7.7 km/h 67 % 0.0 in /  0 mm
03:40 20.6 °F /  -6.3 °C 13.8 °F /  -10.1 °C 1018.8 in /  34496.6 hPa SSW 1.6 mph /  2.6 km/h 3.2 mph /  5.1 km/h 65 % 0.0 in /  0 mm
03:50 21.2 °F /  -6 °C 13.9 °F /  -10.1 °C 1018.8 in /  34496.6 hPa South 1.6 mph /  2.6 km/h 3.2 mph /  5.1 km/h 63 % 0.0 in /  0 mm
04:00 21.7 °F /  -5.7 °C 14.1 °F /  -9.9 °C 1018.8 in /  34496.6 hPa SE 3.2 mph /  5.1 km/h 3.2 mph /  5.1 km/h 62 % 0.0 in /  0 mm
04:10 22.2 °F /  -5.4 °C 14.3 °F /  -9.8 °C 1018.8 in /  34496.6 hPa SE 1.6 mph /  2.6 km/h 3.2 mph /  5.1 km/h 61 % 0.0 in /  0 mm
04:20 23.4 °F /  -4.8 °C 15.2 °F /  -9.3 °C 1018.8 in /  34496.6 hPa South 1.6 mph /  2.6 km/h 3.2 mph /  5.1 km/h 60 % 0.0 in /  0 mm
04:30 23.4 °F /  -4.8 °C 14.7 °F /  -9.6 °C 1018.8 in /  34496.6 hPa Calm   4.8 mph /  7.7 km/h 58 % 0.0 in /  0 mm
04:40 24.1 °F /  -4.4 °C 14.8 °F /  -9.6 °C 1018.8 in /  34496.6 hPa NE 3.2 mph /  5.1 km/h 4.8 mph /  7.7 km/h 56 % 0.0 in /  0 mm
04:50 24.2 °F /  -4.3 °C 13.7 °F /  -10.2 °C 1018.8 in /  34496.6 hPa ENE 3.2 mph /  5.1 km/h 4.8 mph /  7.7 km/h 52 % 0.0 in /  0 mm
05:00 24.8 °F /  -4 °C 14.3 °F /  -9.8 °C 1017.8 in /  34462.7 hPa Calm   3.2 mph /  5.1 km/h 52 % 0.0 in /  0 mm
10:01 25.6 °F /  -3.6 °C 14.4 °F /  -9.8 °C 1017.8 in /  34462.7 hPa West 3.7 mph /  6 km/h   50 % 0.0 in /  0 mm
10:06 26.0 °F /  -3.3 °C 14.4 °F /  -9.8 °C 1017.8 in /  34462.7 hPa WSW 5.0 mph /  8 km/h 5.0 mph /  8 km/h 49 % 0.0 in /  0 mm
10:11 25.3 °F /  -3.7 °C 13.5 °F /  -10.3 °C 1017.8 in /  34462.7 hPa SSE 5.6 mph /  9 km/h 5.6 mph /  9 km/h 48 % 0.0 in /  0 mm
10:16 25.8 °F /  -3.4 °C 13.9 °F /  -10.1 °C 1017.8 in /  34462.7 hPa ESE 3.7 mph /  6 km/h 3.7 mph /  6 km/h 48 % 0.0 in /  0 mm
10:21 25.9 °F /  -3.4 °C 13.7 °F /  -10.2 °C 1017.8 in /  34462.7 hPa NE 5.6 mph /  9 km/h 5.6 mph /  9 km/h 47 % 0.0 in /  0 mm
10:26 25.9 °F /  -3.4 °C 13.7 °F /  -10.2 °C 1017.8 in /  34462.7 hPa ENE 1.9 mph /  3.1 km/h 1.9 mph /  3.1 km/h 47 % 0.0 in /  0 mm
10:31 26.5 °F /  -3.1 °C 13.9 °F /  -10.1 °C 1017.8 in /  34462.7 hPa East 5.6 mph /  9 km/h 5.6 mph /  9 km/h 46 % 0.0 in /  0 mm
10:36 26.9 °F /  -2.8 °C 14.3 °F /  -9.8 °C 1017.8 in /  34462.7 hPa South 3.7 mph /  6 km/h 3.7 mph /  6 km/h 46 % 0.0 in /  0 mm
10:41 27.2 °F /  -2.7 °C 14.2 °F /  -9.9 °C 1016.8 in /  34428.8 hPa SW 4.7 mph /  7.6 km/h 4.7 mph /  7.6 km/h 45 % 0.0 in /  0 mm
10:46 27.1 °F /  -2.7 °C 14.2 °F /  -9.9 °C 1016.8 in /  34428.8 hPa West 7.4 mph /  11.9 km/h 7.4 mph /  11.9 km/h 45 % 0.0 in /  0 mm
10:51 27.7 °F /  -2.4 °C 14.0 °F /  -10 °C 1016.8 in /  34428.8 hPa SE 5.8 mph /  9.3 km/h 5.8 mph /  9.3 km/h 43 % 0.0 in /  0 mm
10:56 28.3 °F /  -2.1 °C 13.8 °F /  -10.1 °C 1017.8 in /  34462.7 hPa SSE 7.9 mph /  12.7 km/h 7.9 mph /  12.7 km/h 41 % 0.0 in /  0 mm
11:01 28.3 °F /  -2.1 °C 13.8 °F /  -10.1 °C 1017.8 in /  34462.7 hPa SW 4.7 mph /  7.6 km/h 4.7 mph /  7.6 km/h 41 % 0.0 in /  0 mm
11:06 28.5 °F /  -1.9 °C 13.9 °F /  -10.1 °C 1017.8 in /  34462.7 hPa SW 9.3 mph /  15 km/h 9.3 mph /  15 km/h 41 % 0.0 in /  0 mm
11:11 28.6 °F /  -1.9 °C 14.1 °F /  -9.9 °C 1016.8 in /  34428.8 hPa West 7.4 mph /  11.9 km/h 7.4 mph /  11.9 km/h 41 % 0.0 in /  0 mm
11:16 28.7 °F /  -1.8 °C 13.8 °F /  -10.1 °C 1016.8 in /  34428.8 hPa SW 3.7 mph /  6 km/h 3.9 mph /  6.3 km/h 40 % 0.0 in /  0 mm
11:21 28.7 °F /  -1.8 °C 13.0 °F /  -10.6 °C 1016.8 in /  34428.8 hPa SW 5.8 mph /  9.3 km/h 5.8 mph /  9.3 km/h 38 % 0.0 in /  0 mm
11:26 29.5 °F /  -1.4 °C 12.8 °F /  -10.7 °C 1017.8 in /  34462.7 hPa SE 5.6 mph /  9 km/h 5.6 mph /  9 km/h 36 % 0.0 in /  0 mm
11:31 29.4 °F /  -1.4 °C 13.2 °F /  -10.4 °C 1017.8 in /  34462.7 hPa NW 7.4 mph /  11.9 km/h 7.4 mph /  11.9 km/h 37 % 0.0 in /  0 mm
11:36 29.5 °F /  -1.4 °C 12.8 °F /  -10.7 °C 1017.8 in /  34462.7 hPa NNW 7.4 mph /  11.9 km/h 7.4 mph /  11.9 km/h 36 % 0.0 in /  0 mm
11:41 30.1 °F /  -1.1 °C 12.5 °F /  -10.8 °C 1017.8 in /  34462.7 hPa SSW 3.7 mph /  6 km/h 3.7 mph /  6 km/h 34 % 0.0 in /  0 mm
11:46 30.4 °F /  -0.9 °C 13.2 °F /  -10.4 °C 1017.8 in /  34462.7 hPa SW 5.6 mph /  9 km/h 5.6 mph /  9 km/h 35 % 0.0 in /  0 mm
11:51 30.3 °F /  -0.9 °C 12.7 °F /  -10.7 °C 1017.8 in /  34462.7 hPa SW 5.6 mph /  9 km/h 5.6 mph /  9 km/h 34 % 0.0 in /  0 mm
11:56 29.9 °F /  -1.2 °C 12.8 °F /  -10.7 °C 1017.8 in /  34462.7 hPa SW 9.7 mph /  15.6 km/h 9.7 mph /  15.6 km/h 35 % 0.0 in /  0 mm
12:01 30.1 °F /  -1.1 °C 12.1 °F /  -11.1 °C 1017.8 in /  34462.7 hPa WSW 3.9 mph /  6.3 km/h 3.9 mph /  6.3 km/h 33 % 0.0 in /  0 mm
12:06 30.3 °F /  -0.9 °C 12.2 °F /  -11 °C 1017.8 in /  34462.7 hPa WSW 9.3 mph /  15 km/h 9.3 mph /  15 km/h 33 % 0.0 in /  0 mm
12:11 30.7 °F /  -0.7 °C 12.1 °F /  -11.1 °C 1017.8 in /  34462.7 hPa SSW 5.3 mph /  8.5 km/h 5.3 mph /  8.5 km/h 32 % 0.0 in /  0 mm
12:16 31.2 °F /  -0.4 °C 12.6 °F /  -10.8 °C 1017.8 in /  34462.7 hPa SSW 9.0 mph /  14.5 km/h 9.0 mph /  14.5 km/h 32 % 0.0 in /  0 mm
12:21 30.7 °F /  -0.7 °C 10.6 °F /  -11.9 °C 1017.8 in /  34462.7 hPa East 9.3 mph /  15 km/h 9.3 mph /  15 km/h 29 % 0.0 in /  0 mm
12:26 30.8 °F /  -0.7 °C 11.7 °F /  -11.3 °C 1016.8 in /  34428.8 hPa West 5.6 mph /  9 km/h 5.6 mph /  9 km/h 31 % 0.0 in /  0 mm
12:31 31.0 °F /  -0.6 °C 11.4 °F /  -11.4 °C 1016.8 in /  34428.8 hPa SW 11.1 mph /  17.9 km/h 11.1 mph /  17.9 km/h 30 % 0.0 in /  0 mm
12:36 31.0 °F /  -0.6 °C 10.9 °F /  -11.7 °C 1016.8 in /  34428.8 hPa SE 5.6 mph /  9 km/h 5.6 mph /  9 km/h 29 % 0.0 in /  0 mm
12:41 31.5 °F /  -0.3 °C 11.8 °F /  -11.2 °C 1016.8 in /  34428.8 hPa WNW 3.7 mph /  6 km/h 3.7 mph /  6 km/h 30 % 0.0 in /  0 mm
12:46 31.4 °F /  -0.3 °C 11.7 °F /  -11.3 °C 1016.8 in /  34428.8 hPa WSW 6.1 mph /  9.8 km/h 6.1 mph /  9.8 km/h 30 % 0.0 in /  0 mm
12:51 31.8 °F /  -0.1 °C 12.1 °F /  -11.1 °C 1016.8 in /  34428.8 hPa South 3.7 mph /  6 km/h 3.7 mph /  6 km/h 30 % 0.0 in /  0 mm
12:56 31.6 °F /  -0.2 °C 11.4 °F /  -11.4 °C 1016.8 in /  34428.8 hPa SSE 9.3 mph /  15 km/h 9.3 mph /  15 km/h 29 % 0.0 in /  0 mm
13:01 31.3 °F /  -0.4 °C 11.7 °F /  -11.3 °C 1016.8 in /  34428.8 hPa SSE 9.3 mph /  15 km/h 9.3 mph /  15 km/h 30 % 0.0 in /  0 mm
13:06 31.0 °F /  -0.6 °C 11.9 °F /  -11.2 °C 1016.8 in /  34428.8 hPa ESE 16.7 mph /  26.9 km/h 16.7 mph /  26.9 km/h 31 % 0.0 in /  0 mm
13:11 30.2 °F /  -1 °C 12.2 °F /  -11 °C 1015.8 in /  34395 hPa ENE 15.6 mph /  25.1 km/h 15.6 mph /  25.1 km/h 33 % 0.0 in /  0 mm
13:16 30.1 °F /  -1.1 °C 12.1 °F /  -11.1 °C 1015.8 in /  34395 hPa ESE 11.4 mph /  18.3 km/h 11.4 mph /  18.3 km/h 33 % 0.0 in /  0 mm
13:21 30.1 °F /  -1.1 °C 12.1 °F /  -11.1 °C 1015.8 in /  34395 hPa SSE 14.8 mph /  23.8 km/h 14.8 mph /  23.8 km/h 33 % 0.0 in /  0 mm
13:26 30.4 °F /  -0.9 °C 12.3 °F /  -10.9 °C 1015.8 in /  34395 hPa East 11.1 mph /  17.9 km/h 11.1 mph /  17.9 km/h 33 % 0.0 in /  0 mm
13:31 30.0 °F /  -1.1 °C 11.5 °F /  -11.4 °C 1015.8 in /  34395 hPa ESE 18.5 mph /  29.8 km/h 18.5 mph /  29.8 km/h 32 % 0.0 in /  0 mm
13:32 30.1 °F /  -1.1 °C 11.6 °F /  -11.3 °C 1015.8 in /  34395 hPa ESE 13.0 mph /  20.9 km/h 13.0 mph /  20.9 km/h 32 % 0.0 in /  0 mm
13:37 30.6 °F /  -0.8 °C 12.0 °F /  -11.1 °C 1015.8 in /  34395 hPa ESE 13.0 mph /  20.9 km/h 13.0 mph /  20.9 km/h 32 % 0.0 in /  0 mm
13:42 30.6 °F /  -0.8 °C 11.6 °F /  -11.3 °C 1015.8 in /  34395 hPa ESE 14.8 mph /  23.8 km/h 14.8 mph /  23.8 km/h 31 % 0.0 in /  0 mm
13:47 30.4 °F /  -0.9 °C 10.9 °F /  -11.7 °C 1015.8 in /  34395 hPa ESE 20.4 mph /  32.8 km/h 20.4 mph /  32.8 km/h 30 % 0.0 in /  0 mm
13:52 30.8 °F /  -0.7 °C 11.2 °F /  -11.6 °C 1015.8 in /  34395 hPa SE 11.9 mph /  19.2 km/h 11.9 mph /  19.2 km/h 30 % 0.0 in /  0 mm
13:57 31.3 °F /  -0.4 °C 11.7 °F /  -11.3 °C 1015.8 in /  34395 hPa ESE 9.3 mph /  15 km/h 9.3 mph /  15 km/h 30 % 0.0 in /  0 mm
14:02 31.3 °F /  -0.4 °C 11.1 °F /  -11.6 °C 1015.8 in /  34395 hPa WSW 9.3 mph /  15 km/h 9.3 mph /  15 km/h 29 % 0.0 in /  0 mm
14:07 31.8 °F /  -0.1 °C 12.1 °F /  -11.1 °C 1015.8 in /  34395 hPa SSW 7.4 mph /  11.9 km/h 7.4 mph /  11.9 km/h 30 % 0.0 in /  0 mm
14:12 32.0 °F /  0 °C 11.7 °F /  -11.3 °C 1015.8 in /  34395 hPa SW 13.0 mph /  20.9 km/h 13.0 mph /  20.9 km/h 29 % 0.0 in /  0 mm
14:17 32.4 °F /  0.2 °C 12.1 °F /  -11.1 °C 1015.8 in /  34395 hPa WSW 7.4 mph /  11.9 km/h 7.4 mph /  11.9 km/h 29 % 0.0 in /  0 mm
14:22 32.3 °F /  0.2 °C 12.0 °F /  -11.1 °C 1015.8 in /  34395 hPa SSW 9.3 mph /  15 km/h 9.3 mph /  15 km/h 29 % 0.0 in /  0 mm
14:27 32.1 °F /  0.1 °C 11.3 °F /  -11.5 °C 1015.8 in /  34395 hPa SSW 9.3 mph /  15 km/h 9.3 mph /  15 km/h 28 % 0.0 in /  0 mm
14:32 32.4 °F /  0.2 °C 11.6 °F /  -11.3 °C 1015.8 in /  34395 hPa WSW 14.0 mph /  22.5 km/h 14.0 mph /  22.5 km/h 28 % 0.0 in /  0 mm
14:37 32.4 °F /  0.2 °C 11.6 °F /  -11.3 °C 1015.8 in /  34395 hPa SW 9.3 mph /  15 km/h 9.3 mph /  15 km/h 28 % 0.0 in /  0 mm
14:42 33.0 °F /  0.6 °C 12.1 °F /  -11.1 °C 1015.8 in /  34395 hPa SSE 13.0 mph /  20.9 km/h 13.0 mph /  20.9 km/h 28 % 0.0 in /  0 mm
14:47 32.7 °F /  0.4 °C 11.8 °F /  -11.2 °C 1015.8 in /  34395 hPa South 9.3 mph /  15 km/h 9.3 mph /  15 km/h 28 % 0.0 in /  0 mm
14:52 32.6 °F /  0.3 °C 11.7 °F /  -11.3 °C 1015.8 in /  34395 hPa SW 13.0 mph /  20.9 km/h 13.0 mph /  20.9 km/h 28 % 0.0 in /  0 mm
14:57 32.4 °F /  0.2 °C 11.6 °F /  -11.3 °C 1015.8 in /  34395 hPa South 16.7 mph /  26.9 km/h 16.7 mph /  26.9 km/h 28 % 0.0 in /  0 mm
15:02 32.0 °F /  0 °C 11.2 °F /  -11.6 °C 1015.8 in /  34395 hPa SW 16.7 mph /  26.9 km/h 16.7 mph /  26.9 km/h 28 % 0.0 in /  0 mm
15:07 32.2 °F /  0.1 °C 11.4 °F /  -11.4 °C 1015.8 in /  34395 hPa SW 9.3 mph /  15 km/h 9.3 mph /  15 km/h 28 % 0.0 in /  0 mm
15:12 32.1 °F /  0.1 °C 11.3 °F /  -11.5 °C 1015.8 in /  34395 hPa SW 13.0 mph /  20.9 km/h 13.0 mph /  20.9 km/h 28 % 0.0 in /  0 mm
15:17 32.2 °F /  0.1 °C 11.4 °F /  -11.4 °C 1015.8 in /  34395 hPa SW 14.8 mph /  23.8 km/h 14.8 mph /  23.8 km/h 28 % 0.0 in /  0 mm
15:22 32.0 °F /  0 °C 11.2 °F /  -11.6 °C 1015.8 in /  34395 hPa SSW 18.5 mph /  29.8 km/h 18.5 mph /  29.8 km/h 28 % 0.0 in /  0 mm
15:27 32.0 °F /  0 °C 11.2 °F /  -11.6 °C 1015.8 in /  34395 hPa SSW 9.7 mph /  15.6 km/h 9.7 mph /  15.6 km/h 28 % 0.0 in /  0 mm
15:32 32.3 °F /  0.2 °C 11.4 °F /  -11.4 °C 1015.8 in /  34395 hPa WSW 14.8 mph /  23.8 km/h 14.8 mph /  23.8 km/h 28 % 0.0 in /  0 mm
15:37 32.9 °F /  0.5 °C 12.0 °F /  -11.1 °C 1015.8 in /  34395 hPa SSW 7.4 mph /  11.9 km/h 7.4 mph /  11.9 km/h 28 % 0.0 in /  0 mm
15:42 32.7 °F /  0.4 °C 11.3 °F /  -11.5 °C 1015.8 in /  34395 hPa ESE 9.3 mph /  15 km/h 9.3 mph /  15 km/h 27 % 0.0 in /  0 mm
15:47 33.0 °F /  0.6 °C 11.5 °F /  -11.4 °C 1015.8 in /  34395 hPa SSW 11.9 mph /  19.2 km/h 11.9 mph /  19.2 km/h 27 % 0.0 in /  0 mm
15:52 32.5 °F /  0.3 °C 11.1 °F /  -11.6 °C 1015.8 in /  34395 hPa South 9.3 mph /  15 km/h 9.3 mph /  15 km/h 27 % 0.0 in /  0 mm
15:57 32.8 °F /  0.4 °C 11.3 °F /  -11.5 °C 1015.8 in /  34395 hPa SSE 9.3 mph /  15 km/h 9.3 mph /  15 km/h 27 % 0.0 in /  0 mm
16:02 33.0 °F /  0.6 °C 11.5 °F /  -11.4 °C 1015.8 in /  34395 hPa South 9.5 mph /  15.3 km/h 9.5 mph /  15.3 km/h 27 % 0.0 in /  0 mm
16:07 32.1 °F /  0.1 °C 10.7 °F /  -11.8 °C 1015.8 in /  34395 hPa SSE 14.8 mph /  23.8 km/h 14.8 mph /  23.8 km/h 27 % 0.0 in /  0 mm
16:12 32.6 °F /  0.3 °C 11.2 °F /  -11.6 °C 1015.8 in /  34395 hPa WSW 7.4 mph /  11.9 km/h 7.4 mph /  11.9 km/h 27 % 0.0 in /  0 mm
16:17 31.9 °F /  -0.1 °C 10.6 °F /  -11.9 °C 1015.8 in /  34395 hPa SW 18.5 mph /  29.8 km/h 18.5 mph /  29.8 km/h 27 % 0.0 in /  0 mm
16:22 31.8 °F /  -0.1 °C 11.1 °F /  -11.6 °C 1015.8 in /  34395 hPa SSW 11.4 mph /  18.3 km/h 11.4 mph /  18.3 km/h 28 % 0.0 in /  0 mm
16:27 32.1 °F /  0.1 °C 10.7 °F /  -11.8 °C 1015.8 in /  34395 hPa WSW 17.5 mph /  28.2 km/h 17.5 mph /  28.2 km/h 27 % 0.0 in /  0 mm
16:28 32.0 °F /  0 °C 10.7 °F /  -11.8 °C 1015.8 in /  34395 hPa SSW 18.5 mph /  29.8 km/h 18.5 mph /  29.8 km/h 27 % 0.0 in /  0 mm
16:33 31.9 °F /  -0.1 °C 11.1 °F /  -11.6 °C 1015.8 in /  34395 hPa West 13.0 mph /  20.9 km/h 13.0 mph /  20.9 km/h 28 % 0.0 in /  0 mm
16:38 32.0 °F /  0 °C 10.7 °F /  -11.8 °C 1015.8 in /  34395 hPa South 9.7 mph /  15.6 km/h 9.7 mph /  15.6 km/h 27 % 0.0 in /  0 mm
16:43 32.0 °F /  0 °C 10.7 °F /  -11.8 °C 1015.8 in /  34395 hPa South 11.1 mph /  17.9 km/h 11.1 mph /  17.9 km/h 27 % 0.0 in /  0 mm
16:48 31.7 °F /  -0.2 °C 10.9 °F /  -11.7 °C 1015.8 in /  34395 hPa SW 16.7 mph /  26.9 km/h 16.7 mph /  26.9 km/h 28 % 0.0 in /  0 mm
16:53 32.1 °F /  0.1 °C 10.7 °F /  -11.8 °C 1015.8 in /  34395 hPa SW 13.0 mph /  20.9 km/h 13.0 mph /  20.9 km/h 27 % 0.0 in /  0 mm
16:58 32.1 °F /  0.1 °C 10.7 °F /  -11.8 °C 1015.8 in /  34395 hPa SW 9.3 mph /  15 km/h 9.3 mph /  15 km/h 27 % 0.0 in /  0 mm
17:03 32.2 °F /  0.1 °C 10.8 °F /  -11.8 °C 1015.8 in /  34395 hPa SW 9.0 mph /  14.5 km/h 9.0 mph /  14.5 km/h 27 % 0.0 in /  0 mm
17:08 32.2 °F /  0.1 °C 10.8 °F /  -11.8 °C 1015.8 in /  34395 hPa SW 10.3 mph /  16.6 km/h 10.3 mph /  16.6 km/h 27 % 0.0 in /  0 mm
17:13 32.2 °F /  0.1 °C 10.8 °F /  -11.8 °C 1015.8 in /  34395 hPa SW 5.6 mph /  9 km/h 6.4 mph /  10.3 km/h 27 % 0.0 in /  0 mm
17:18 32.3 °F /  0.2 °C 10.9 °F /  -11.7 °C 1015.8 in /  34395 hPa WSW 13.0 mph /  20.9 km/h 13.0 mph /  20.9 km/h 27 % 0.0 in /  0 mm
17:23 31.8 °F /  -0.1 °C 10.5 °F /  -11.9 °C 1015.8 in /  34395 hPa SSE 9.3 mph /  15 km/h 9.3 mph /  15 km/h 27 % 0.0 in /  0 mm
17:28 32.1 °F /  0.1 °C 10.2 °F /  -12.1 °C 1015.8 in /  34395 hPa West 6.9 mph /  11.1 km/h 6.9 mph /  11.1 km/h 26 % 0.0 in /  0 mm
17:33 32.1 °F /  0.1 °C 10.7 °F /  -11.8 °C 1015.8 in /  34395 hPa SW 9.3 mph /  15 km/h 9.3 mph /  15 km/h 27 % 0.0 in /  0 mm
17:38 31.5 °F /  -0.3 °C 10.2 °F /  -12.1 °C 1015.8 in /  34395 hPa SW 14.8 mph /  23.8 km/h 14.8 mph /  23.8 km/h 27 % 0.0 in /  0 mm
17:43 31.3 °F /  -0.4 °C 10.1 °F /  -12.2 °C 1014.8 in /  34361.1 hPa SW 12.6 mph /  20.3 km/h 12.6 mph /  20.3 km/h 27 % 0.0 in /  0 mm
17:48 31.1 °F /  -0.5 °C 9.9 °F /  -12.3 °C 1014.8 in /  34361.1 hPa SSW 9.3 mph /  15 km/h 10.0 mph /  16.1 km/h 27 % 0.0 in /  0 mm
17:53 31.3 °F /  -0.4 °C 10.1 °F /  -12.2 °C 1014.8 in /  34361.1 hPa WSW 8.7 mph /  14 km/h 8.7 mph /  14 km/h 27 % 0.0 in /  0 mm
17:54 31.3 °F /  -0.4 °C 10.1 °F /  -12.2 °C 1014.8 in /  34361.1 hPa South 5.6 mph /  9 km/h 5.6 mph /  9 km/h 27 % 0.0 in /  0 mm
17:59 31.0 °F /  -0.6 °C 10.3 °F /  -12.1 °C 1014.8 in /  34361.1 hPa SSW 14.8 mph /  23.8 km/h 14.8 mph /  23.8 km/h 28 % 0.0 in /  0 mm
18:04 31.3 °F /  -0.4 °C 10.6 °F /  -11.9 °C 1014.8 in /  34361.1 hPa SW 9.3 mph /  15 km/h 9.3 mph /  15 km/h 28 % 0.0 in /  0 mm
18:09 31.4 °F /  -0.3 °C 10.7 °F /  -11.8 °C 1014.8 in /  34361.1 hPa SSW 11.9 mph /  19.2 km/h 11.9 mph /  19.2 km/h 28 % 0.0 in /  0 mm
18:14 31.4 °F /  -0.3 °C 10.7 °F /  -11.8 °C 1014.8 in /  34361.1 hPa SSW 10.3 mph /  16.6 km/h 10.3 mph /  16.6 km/h 28 % 0.0 in /  0 mm
18:19 30.8 °F /  -0.7 °C 10.2 °F /  -12.1 °C 1014.8 in /  34361.1 hPa SW 16.1 mph /  25.9 km/h 16.1 mph /  25.9 km/h 28 % 0.0 in /  0 mm
18:24 30.3 °F /  -0.9 °C 9.8 °F /  -12.3 °C 1014.8 in /  34361.1 hPa SW 10.0 mph /  16.1 km/h 10.0 mph /  16.1 km/h 28 % 0.0 in /  0 mm
18:29 30.4 °F /  -0.9 °C 9.8 °F /  -12.3 °C 1014.8 in /  34361.1 hPa West 11.4 mph /  18.3 km/h 11.4 mph /  18.3 km/h 28 % 0.0 in /  0 mm
18:34 30.3 °F /  -0.9 °C 9.8 °F /  -12.3 °C 1014.8 in /  34361.1 hPa SSW 13.0 mph /  20.9 km/h 13.0 mph /  20.9 km/h 28 % 0.0 in /  0 mm
18:39 29.9 °F /  -1.2 °C 9.4 °F /  -12.6 °C 1014.8 in /  34361.1 hPa WSW 14.8 mph /  23.8 km/h 14.8 mph /  23.8 km/h 28 % 0.0 in /  0 mm
18:44 30.0 °F /  -1.1 °C 9.5 °F /  -12.5 °C 1014.8 in /  34361.1 hPa SW 20.4 mph /  32.8 km/h 20.4 mph /  32.8 km/h 28 % 0.0 in /  0 mm
18:49 29.9 °F /  -1.2 °C 9.4 °F /  -12.6 °C 1014.8 in /  34361.1 hPa SW 11.1 mph /  17.9 km/h 11.1 mph /  17.9 km/h 28 % 0.0 in /  0 mm
18:54 29.5 °F /  -1.4 °C 9.1 °F /  -12.7 °C 1014.8 in /  34361.1 hPa SW 16.7 mph /  26.9 km/h 16.7 mph /  26.9 km/h 28 % 0.0 in /  0 mm
18:59 29.6 °F /  -1.3 °C 9.2 °F /  -12.7 °C 1014.8 in /  34361.1 hPa SW 14.8 mph /  23.8 km/h 14.8 mph /  23.8 km/h 28 % 0.0 in /  0 mm
19:04 29.2 °F /  -1.6 °C 8.8 °F /  -12.9 °C 1014.8 in /  34361.1 hPa SW 14.8 mph /  23.8 km/h 14.8 mph /  23.8 km/h 28 % 0.0 in /  0 mm
19:09 29.1 °F /  -1.6 °C 8.7 °F /  -12.9 °C 1014.8 in /  34361.1 hPa SW 12.6 mph /  20.3 km/h 12.6 mph /  20.3 km/h 28 % 0.0 in /  0 mm
19:14 29.0 °F /  -1.7 °C 8.7 °F /  -12.9 °C 1014.8 in /  34361.1 hPa SW 9.3 mph /  15 km/h 9.3 mph /  15 km/h 28 % 0.0 in /  0 mm
19:19 29.4 °F /  -1.4 °C 9.5 °F /  -12.5 °C 1014.8 in /  34361.1 hPa South 9.3 mph /  15 km/h 9.3 mph /  15 km/h 29 % 0.0 in /  0 mm
19:20 21.2 °F /  -6 °C 11.2 °F /  -11.6 °C 1016.8 in /  34428.8 hPa Calm   1.6 mph /  2.6 km/h 53 % 0.0 in /  0 mm
19:24 29.3 °F /  -1.5 °C 9.4 °F /  -12.6 °C 1014.8 in /  34361.1 hPa WSW 5.8 mph /  9.3 km/h 5.8 mph /  9.3 km/h 29 % 0.0 in /  0 mm
19:29 28.8 °F /  -1.8 °C 9.5 °F /  -12.5 °C 1014.8 in /  34361.1 hPa SW 13.0 mph /  20.9 km/h 13.0 mph /  20.9 km/h 30 % 0.0 in /  0 mm
19:30 21.0 °F /  -6.1 °C 11.3 °F /  -11.5 °C 1015.8 in /  34395 hPa WNW 1.6 mph /  2.6 km/h 1.6 mph /  2.6 km/h 54 % 0.0 in /  0 mm
19:34 28.6 °F /  -1.9 °C 9.3 °F /  -12.6 °C 1014.8 in /  34361.1 hPa SW 10.3 mph /  16.6 km/h 10.3 mph /  16.6 km/h 30 % 0.0 in /  0 mm
19:35 20.9 °F /  -6.2 °C 11.5 °F /  -11.4 °C 1015.8 in /  34395 hPa Calm     55 % 0.0 in /  0 mm
19:39 28.4 °F /  -2 °C 9.2 °F /  -12.7 °C 1014.8 in /  34361.1 hPa SW 9.3 mph /  15 km/h 9.3 mph /  15 km/h 30 % 0.0 in /  0 mm
19:44 28.3 °F /  -2.1 °C 9.1 °F /  -12.7 °C 1015.8 in /  34395 hPa SW 16.7 mph /  26.9 km/h 16.7 mph /  26.9 km/h 30 % 0.0 in /  0 mm
19:45 20.7 °F /  -6.3 °C 11.3 °F /  -11.5 °C 1015.8 in /  34395 hPa Calm   1.6 mph /  2.6 km/h 55 % 0.0 in /  0 mm
19:49 28.0 °F /  -2.2 °C 8.8 °F /  -12.9 °C 1015.8 in /  34395 hPa WSW 9.3 mph /  15 km/h 9.3 mph /  15 km/h 30 % 0.0 in /  0 mm
19:54 28.0 °F /  -2.2 °C 8.8 °F /  -12.9 °C 1015.8 in /  34395 hPa South 9.3 mph /  15 km/h 9.3 mph /  15 km/h 30 % 0.0 in /  0 mm
19:59 27.8 °F /  -2.3 °C 9.1 °F /  -12.7 °C 1014.8 in /  34361.1 hPa WSW 14.8 mph /  23.8 km/h 14.8 mph /  23.8 km/h 31 % 0.0 in /  0 mm
20:04 27.6 °F /  -2.4 °C 8.9 °F /  -12.8 °C 1014.8 in /  34361.1 hPa SSW 11.4 mph /  18.3 km/h 11.4 mph /  18.3 km/h 31 % 0.0 in /  0 mm
20:05 20.3 °F /  -6.5 °C 11.5 °F /  -11.4 °C 1015.8 in /  34395 hPa Calm     57 % 0.0 in /  0 mm
20:09 27.6 °F /  -2.4 °C 9.4 °F /  -12.6 °C 1014.8 in /  34361.1 hPa SSW 9.0 mph /  14.5 km/h 9.0 mph /  14.5 km/h 32 % 0.0 in /  0 mm
20:10 20.1 °F /  -6.6 °C 11.3 °F /  -11.5 °C 1015.8 in /  34395 hPa Calm     57 % 0.0 in /  0 mm
20:14 27.2 °F /  -2.7 °C 9.1 °F /  -12.7 °C 1015.8 in /  34395 hPa SW 9.3 mph /  15 km/h 9.3 mph /  15 km/h 32 % 0.0 in /  0 mm
20:15 20.0 °F /  -6.7 °C 11.5 °F /  -11.4 °C 1015.8 in /  34395 hPa Calm     58 % 0.0 in /  0 mm
20:19 27.0 °F /  -2.8 °C 8.9 °F /  -12.8 °C 1015.8 in /  34395 hPa South 9.3 mph /  15 km/h 9.3 mph /  15 km/h 32 % 0.0 in /  0 mm
20:24 27.0 °F /  -2.8 °C 8.9 °F /  -12.8 °C 1015.8 in /  34395 hPa SSE 9.3 mph /  15 km/h 9.3 mph /  15 km/h 32 % 0.0 in /  0 mm
20:25 19.7 °F /  -6.8 °C 11.4 °F /  -11.4 °C 1015.8 in /  34395 hPa West 1.6 mph /  2.6 km/h 1.6 mph /  2.6 km/h 59 % 0.0 in /  0 mm
20:29 26.7 °F /  -2.9 °C 9.1 °F /  -12.7 °C 1015.8 in /  34395 hPa SW 5.6 mph /  9 km/h 5.6 mph /  9 km/h 33 % 0.0 in /  0 mm
20:34 26.5 °F /  -3.1 °C 9.3 °F /  -12.6 °C 1015.8 in /  34395 hPa SW 13.0 mph /  20.9 km/h 13.0 mph /  20.9 km/h 34 % 0.0 in /  0 mm
20:35 19.5 °F /  -6.9 °C 11.3 °F /  -11.5 °C 1015.8 in /  34395 hPa WSW 1.6 mph /  2.6 km/h 3.2 mph /  5.1 km/h 59 % 0.0 in /  0 mm
20:39 26.3 °F /  -3.2 °C 9.2 °F /  -12.7 °C 1015.8 in /  34395 hPa SW 11.1 mph /  17.9 km/h 11.1 mph /  17.9 km/h 34 % 0.0 in /  0 mm
20:44 26.0 °F /  -3.3 °C 8.9 °F /  -12.8 °C 1015.8 in /  34395 hPa WSW 14.8 mph /  23.8 km/h 14.8 mph /  23.8 km/h 34 % 0.0 in /  0 mm
20:45 19.2 °F /  -7.1 °C 11.2 °F /  -11.6 °C 1015.8 in /  34395 hPa Calm   3.2 mph /  5.1 km/h 60 % 0.0 in /  0 mm
20:49 25.9 °F /  -3.4 °C 8.8 °F /  -12.9 °C 1015.8 in /  34395 hPa WSW 5.6 mph /  9 km/h 5.6 mph /  9 km/h 34 % 0.0 in /  0 mm
20:54 25.7 °F /  -3.5 °C 8.7 °F /  -12.9 °C 1015.8 in /  34395 hPa SW 11.1 mph /  17.9 km/h 11.1 mph /  17.9 km/h 34 % 0.0 in /  0 mm
20:55 19.1 °F /  -7.2 °C 11.2 °F /  -11.6 °C 1015.8 in /  34395 hPa Calm   3.2 mph /  5.1 km/h 60 % 0.0 in /  0 mm
20:59 25.5 °F /  -3.6 °C 8.9 °F /  -12.8 °C 1015.8 in /  34395 hPa SSW 9.3 mph /  15 km/h 9.3 mph /  15 km/h 35 % 0.0 in /  0 mm
21:04 25.4 °F /  -3.7 °C 8.8 °F /  -12.9 °C 1015.8 in /  34395 hPa SSW 9.3 mph /  15 km/h 9.3 mph /  15 km/h 35 % 0.0 in /  0 mm
21:05 19.1 °F /  -7.2 °C 11.4 °F /  -11.4 °C 1015.8 in /  34395 hPa WSW 3.2 mph /  5.1 km/h 3.2 mph /  5.1 km/h 61 % 0.0 in /  0 mm
21:09 25.2 °F /  -3.8 °C 8.7 °F /  -12.9 °C 1015.8 in /  34395 hPa SW 13.0 mph /  20.9 km/h 13.0 mph /  20.9 km/h 35 % 0.0 in /  0 mm
21:14 25.1 °F /  -3.8 °C 9.0 °F /  -12.8 °C 1015.8 in /  34395 hPa WSW 7.4 mph /  11.9 km/h 7.4 mph /  11.9 km/h 36 % 0.0 in /  0 mm
21:15 19.0 °F /  -7.2 °C 11.3 °F /  -11.5 °C 1015.8 in /  34395 hPa NE 3.2 mph /  5.1 km/h 3.2 mph /  5.1 km/h 61 % 0.0 in /  0 mm
21:19 24.9 °F /  -3.9 °C 9.2 °F /  -12.7 °C 1015.8 in /  34395 hPa SW 11.1 mph /  17.9 km/h 11.1 mph /  17.9 km/h 37 % 0.0 in /  0 mm
21:24 24.7 °F /  -4.1 °C 9.0 °F /  -12.8 °C 1015.8 in /  34395 hPa SSW 11.1 mph /  17.9 km/h 11.1 mph /  17.9 km/h 37 % 0.0 in /  0 mm
21:25 19.0 °F /  -7.2 °C 11.3 °F /  -11.5 °C 1015.8 in /  34395 hPa NE 1.6 mph /  2.6 km/h 3.2 mph /  5.1 km/h 61 % 0.0 in /  0 mm
21:29 24.6 °F /  -4.1 °C 9.3 °F /  -12.6 °C 1015.8 in /  34395 hPa SW 9.3 mph /  15 km/h 9.3 mph /  15 km/h 38 % 0.0 in /  0 mm
21:34 24.4 °F /  -4.2 °C 9.2 °F /  -12.7 °C 1015.8 in /  34395 hPa WSW 9.3 mph /  15 km/h 9.3 mph /  15 km/h 38 % 0.0 in /  0 mm
21:35 24.4 °F /  -4.2 °C 9.2 °F /  -12.7 °C 1015.8 in /  34395 hPa WSW 7.4 mph /  11.9 km/h 7.4 mph /  11.9 km/h 38 % 0.0 in /  0 mm
21:39 24.3 °F /  -4.3 °C 9.4 °F /  -12.6 °C 1015.8 in /  34395 hPa WSW 9.3 mph /  15 km/h 9.3 mph /  15 km/h 39 % 0.0 in /  0 mm
21:44 24.1 °F /  -4.4 °C 9.3 °F /  -12.6 °C 1015.8 in /  34395 hPa SW 11.1 mph /  17.9 km/h 11.1 mph /  17.9 km/h 39 % 0.0 in /  0 mm
21:45 18.6 °F /  -7.4 °C 11.2 °F /  -11.6 °C 1015.8 in /  34395 hPa Calm   1.6 mph /  2.6 km/h 62 % 0.0 in /  0 mm
21:49 24.0 °F /  -4.4 °C 9.6 °F /  -12.4 °C 1015.8 in /  34395 hPa SW 9.3 mph /  15 km/h 9.3 mph /  15 km/h 40 % 0.0 in /  0 mm
21:54 23.8 °F /  -4.6 °C 9.4 °F /  -12.6 °C 1015.8 in /  34395 hPa SW 9.5 mph /  15.3 km/h 9.5 mph /  15.3 km/h 40 % 0.0 in /  0 mm
21:55 18.4 °F /  -7.6 °C 11.2 °F /  -11.6 °C 1015.8 in /  34395 hPa Calm     63 % 0.0 in /  0 mm
21:59 23.7 °F /  -4.6 °C 9.7 °F /  -12.4 °C 1015.8 in /  34395 hPa SW 5.6 mph /  9 km/h 5.6 mph /  9 km/h 41 % 0.0 in /  0 mm
22:04 23.5 °F /  -4.7 °C 9.5 °F /  -12.5 °C 1015.8 in /  34395 hPa SW 9.3 mph /  15 km/h 9.3 mph /  15 km/h 41 % 0.0 in /  0 mm
22:05 18.1 °F /  -7.7 °C 11.2 °F /  -11.6 °C 1014.8 in /  34361.1 hPa Calm     64 % 0.0 in /  0 mm
22:09 23.4 °F /  -4.8 °C 9.8 °F /  -12.3 °C 1015.8 in /  34395 hPa WSW 6.9 mph /  11.1 km/h 6.9 mph /  11.1 km/h 42 % 0.0 in /  0 mm
22:14 23.2 °F /  -4.9 °C 9.9 °F /  -12.3 °C 1015.8 in /  34395 hPa SW 9.3 mph /  15 km/h 9.3 mph /  15 km/h 43 % 0.0 in /  0 mm
22:15 17.9 °F /  -7.8 °C 11.0 °F /  -11.7 °C 1015.8 in /  34395 hPa SW 1.6 mph /  2.6 km/h 1.6 mph /  2.6 km/h 64 % 0.0 in /  0 mm
22:19 23.1 °F /  -4.9 °C 10.2 °F /  -12.1 °C 1015.8 in /  34395 hPa SW 5.6 mph /  9 km/h 5.6 mph /  9 km/h 44 % 0.0 in /  0 mm
22:24 23.0 °F /  -5 °C 10.4 °F /  -12 °C 1015.8 in /  34395 hPa WSW 7.9 mph /  12.7 km/h 7.9 mph /  12.7 km/h 45 % 0.0 in /  0 mm
22:25 17.7 °F /  -7.9 °C 11.1 °F /  -11.6 °C 1015.8 in /  34395 hPa Calm     65 % 0.0 in /  0 mm
22:29 22.9 °F /  -5.1 °C 10.7 °F /  -11.8 °C 1015.8 in /  34395 hPa WSW 5.8 mph /  9.3 km/h 5.8 mph /  9.3 km/h 46 % 0.0 in /  0 mm
22:34 22.8 °F /  -5.1 °C 10.9 °F /  -11.7 °C 1015.8 in /  34395 hPa SW 5.6 mph /  9 km/h 5.6 mph /  9 km/h 47 % 0.0 in /  0 mm
22:35 17.6 °F /  -8 °C 11.2 °F /  -11.6 °C 1014.8 in /  34361.1 hPa Calm     66 % 0.0 in /  0 mm
22:39 22.7 °F /  -5.2 °C 10.8 °F /  -11.8 °C 1015.8 in /  34395 hPa SW 3.7 mph /  6 km/h 4.7 mph /  7.6 km/h 47 % 0.0 in /  0 mm
22:44 22.5 °F /  -5.3 °C 10.9 °F /  -11.7 °C 1015.8 in /  34395 hPa SW 3.7 mph /  6 km/h 3.7 mph /  6 km/h 48 % 0.0 in /  0 mm
22:45 17.4 °F /  -8.1 °C 11.0 °F /  -11.7 °C 1016.8 in /  34428.8 hPa Calm     66 % 0.0 in /  0 mm
22:49 22.4 °F /  -5.3 °C 11.2 °F /  -11.6 °C 1015.8 in /  34395 hPa SW 3.7 mph /  6 km/h 3.7 mph /  6 km/h 49 % 0.0 in /  0 mm
22:54 22.3 °F /  -5.4 °C 11.1 °F /  -11.6 °C 1015.8 in /  34395 hPa SSW 4.2 mph /  6.8 km/h 4.2 mph /  6.8 km/h 49 % 0.0 in /  0 mm
22:55 17.4 °F /  -8.1 °C 11.0 °F /  -11.7 °C 1016.8 in /  34428.8 hPa Calm     66 % 0.0 in /  0 mm
22:59 22.3 °F /  -5.4 °C 11.1 °F /  -11.6 °C 1015.8 in /  34395 hPa WSW 3.7 mph /  6 km/h 3.7 mph /  6 km/h 49 % 0.0 in /  0 mm
23:04 22.2 °F /  -5.4 °C 11.3 °F /  -11.5 °C 1015.8 in /  34395 hPa WSW 3.7 mph /  6 km/h 3.7 mph /  6 km/h 50 % 0.0 in /  0 mm
23:05 17.3 °F /  -8.2 °C 11.1 °F /  -11.6 °C 1015.8 in /  34395 hPa Calm     67 % 0.0 in /  0 mm
23:09 22.1 °F /  -5.5 °C 11.2 °F /  -11.6 °C 1015.8 in /  34395 hPa WNW 1.9 mph /  3.1 km/h 1.9 mph /  3.1 km/h 50 % 0.0 in /  0 mm
23:14 22.1 °F /  -5.5 °C 11.2 °F /  -11.6 °C 1015.8 in /  34395 hPa SW 3.7 mph /  6 km/h 3.7 mph /  6 km/h 50 % 0.0 in /  0 mm
23:15 17.2 °F /  -8.2 °C 11.0 °F /  -11.7 °C 1015.8 in /  34395 hPa Calm     67 % 0.0 in /  0 mm
23:19 22.0 °F /  -5.6 °C 11.1 °F /  -11.6 °C 1015.8 in /  34395 hPa WSW 3.7 mph /  6 km/h 3.7 mph /  6 km/h 50 % 0.0 in /  0 mm
23:24 22.0 °F /  -5.6 °C 11.4 °F /  -11.4 °C 1015.8 in /  34395 hPa NNW 1.4 mph /  2.3 km/h   51 % 0.0 in /  0 mm
23:25 17.1 °F /  -8.3 °C 10.9 °F /  -11.7 °C 1015.8 in /  34395 hPa Calm     67 % 0.0 in /  0 mm
23:29 21.9 °F /  -5.6 °C 11.3 °F /  -11.5 °C 1015.8 in /  34395 hPa WSW 3.7 mph /  6 km/h 3.7 mph /  6 km/h 51 % 0.0 in /  0 mm
23:34 21.9 °F /  -5.6 °C 11.3 °F /  -11.5 °C 1015.8 in /  34395 hPa WSW 1.9 mph /  3.1 km/h   51 % 0.0 in /  0 mm
23:35 17.1 °F /  -8.3 °C 10.9 °F /  -11.7 °C 1015.8 in /  34395 hPa Calm     67 % 0.0 in /  0 mm
23:39 21.8 °F /  -5.7 °C 11.5 °F /  -11.4 °C 1015.8 in /  34395 hPa West 1.9 mph /  3.1 km/h   52 % 0.0 in /  0 mm
23:44 21.8 °F /  -5.7 °C 11.5 °F /  -11.4 °C 1015.8 in /  34395 hPa WSW 3.7 mph /  6 km/h 3.7 mph /  6 km/h 52 % 0.0 in /  0 mm
23:45 16.8 °F /  -8.4 °C 10.8 °F /  -11.8 °C 1015.8 in /  34395 hPa Calm   1.6 mph /  2.6 km/h 68 % 0.0 in /  0 mm
23:49 21.7 °F /  -5.7 °C 11.4 °F /  -11.4 °C 1015.8 in /  34395 hPa WNW 1.9 mph /  3.1 km/h 1.9 mph /  3.1 km/h 52 % 0.0 in /  0 mm
23:54 21.7 °F /  -5.7 °C 11.4 °F /  -11.4 °C 1015.8 in /  34395 hPa West 3.7 mph /  6 km/h 3.7 mph /  6 km/h 52 % 0.0 in /  0 mm
23:55 16.7 °F /  -8.5 °C 11.0 °F /  -11.7 °C 1015.8 in /  34395 hPa Calm     69 % 0.0 in /  0 mm
23:59 21.6 °F /  -5.8 °C 11.6 °F /  -11.3 °C 1015.8 in /  34395 hPa West 1.4 mph /  2.3 km/h   53 % 0.0 in /  0 mm
Meteo Sesrovires
Elogis d' Weather Underground - 1.5 mb

Guio original per  Jim McMurry - jmcmurry@mwt.net Adaptat per a la plantilla per  Wim van der Kuil - Leuven-Template.eu

Trobareu la nostra informacio del temps tambe a:

Weather Underground

AWEKAS